Time;durP1;ratioP1;P1;durP2;ratioP2;P2;SDS_P1;SDS_P2;PMS_P1;PMS_P2;Temp;Humidity;BMP_temperature;BMP_pressure;BME280_temperature;BME280_humidity;BME280_pressure;Samples;Min_cycle;Max_cycle;Signal;HPM_P1;HPM_P2
2023/08/18 00:01:42;;;;;;;;;;;;;;;;;;5326603;28;19915;-71
2023/08/18 00:04:13;;;;;;;;;;;;;;;;;;5328183;28;20354;-71
2023/08/18 00:06:44;;;;;;;;;;;;;;;;;;5326686;28;19916;-70
2023/08/18 00:09:16;;;;;;;;;;;;;;;;;;5327987;28;19915;-70
2023/08/18 00:11:47;;;;;;;;;;;;;;;;;;5327213;28;19907;-70
2023/08/18 00:14:19;;;;;;;;;;;;;;;;;;5326826;28;20278;-70
2023/08/18 00:16:50;;;;;;;;;;;;;;;;;;5327130;28;20430;-70
2023/08/18 00:19:21;;;;;;;;;;;;;;;;;;5327580;28;19912;-70
2023/08/18 00:21:52;;;;;;;;;;;;;;;;;;5326196;28;20388;-70
2023/08/18 00:24:24;;;;;;;;;;;;;;;;;;5327202;28;19915;-70
2023/08/18 00:26:55;;;;;;;;;;;;;;;;;;5326982;28;19916;-70
2023/08/18 00:29:26;;;;;;;;;;;;;;;;;;5326481;28;19908;-70
2023/08/18 00:31:57;;;;;;;;;;;;;;;;;;5327055;28;19911;-70
2023/08/18 00:34:28;;;;;;;;;;;;;;;;;;5326802;28;19908;-70
2023/08/18 00:36:59;;;;;;;;;;;;;;;;;;5326173;28;19943;-70
2023/08/18 00:39:31;;;;;;;;;;;;;;;;;;5325515;28;19904;-70
2023/08/18 00:42:02;;;;;;;;;;;;;;;;;;5326316;28;19912;-70
2023/08/18 00:44:35;;;;;;;;;;;;;;;;;;5325916;28;20347;-70
2023/08/18 00:47:06;;;;;;;;;;;;;;;;;;5326989;28;19960;-70
2023/08/18 00:49:37;;;;;;;;;;;;;;;;;;5325621;28;19908;-70
2023/08/18 00:52:08;;;;;;;;;;;;;;;;;;5327002;28;19959;-70
2023/08/18 00:54:39;;;;;;;;;;;;;;;;;;5326460;28;20269;-70
2023/08/18 00:57:10;;;;;;;;;;;;;;;;;;5326056;28;19914;-70
2023/08/18 00:59:41;;;;;;;;;;;;;;;;;;5326313;28;19911;-70
2023/08/18 01:02:12;;;;;;;;;;;;;;;;;;5326882;28;19914;-70
2023/08/18 01:04:43;;;;;;;;;;;;;;;;;;5325768;28;20362;-70
2023/08/18 01:07:14;;;;;;;;;;;;;;;;;;5326492;28;19919;-70
2023/08/18 01:09:46;;;;;;;;;;;;;;;;;;5325191;28;19915;-71
2023/08/18 01:12:17;;;;;;;;;;;;;;;;;;5326067;28;19908;-70
2023/08/18 01:14:48;;;;;;;;;;;;;;;;;;5325719;28;19908;-70
2023/08/18 01:17:19;;;;;;;;;;;;;;;;;;5325845;28;20341;-70
2023/08/18 01:19:50;;;;;;;;;;;;;;;;;;5325692;28;19918;-70
2023/08/18 01:22:21;;;;;;;;;;;;;;;;;;5326303;28;19914;-70
2023/08/18 01:24:52;;;;;;;;;;;;;;;;;;5324799;28;19961;-70
2023/08/18 01:27:23;;;;;;;;;;;;;;;;;;5325694;28;19916;-71
2023/08/18 01:29:54;;;;;;;;;;;;;;;;;;5325982;28;19908;-70
2023/08/18 01:32:26;;;;;;;;;;;;;;;;;;5325078;28;19907;-70
2023/08/18 01:34:57;;;;;;;;;;;;;;;;;;5325822;28;19907;-70
2023/08/18 01:37:29;;;;;;;;;;;;;;;;;;5325357;28;19920;-70
2023/08/18 01:40:00;;;;;;;;;;;;;;;;;;5306612;28;19931;-73
2023/08/18 01:42:31;;;;;;;;;;;;;;;;;;5325195;28;19935;-71
2023/08/18 01:45:03;;;;;;;;;;;;;;;;;;5325207;28;20317;-71
2023/08/18 01:47:34;;;;;;;;;;;;;;;;;;5325224;28;20010;-71
2023/08/18 01:50:05;;;;;;;;;;;;;;;;;;5325593;28;19908;-70
2023/08/18 01:52:36;;;;;;;;;;;;;;;;;;5324678;28;19960;-71
2023/08/18 01:55:07;;;;;;;;;;;;;;;;;;5325685;28;19961;-71
2023/08/18 01:57:38;;;;;;;;;;;;;;;;;;5324825;28;20362;-69
2023/08/18 02:00:09;;;;;;;;;;;;;;;;;;5324739;28;19966;-72
2023/08/18 02:02:40;;;;;;;;;;;;;;;;;;5324707;28;19999;-71
2023/08/18 02:05:11;;;;;;;;;;;;;;;;;;5325557;28;19914;-72
2023/08/18 02:07:42;;;;;;;;;;;;;;;;;;5323993;28;19912;-72
2023/08/18 02:10:14;;;;;;;;;;;;;;;;;;5325514;28;19908;-72
2023/08/18 02:12:45;;;;;;;;;;;;;;;;;;5324813;28;19908;-72
2023/08/18 02:15:16;;;;;;;;;;;;;;;;;;5324901;28;19908;-71
2023/08/18 02:17:47;;;;;;;;;;;;;;;;;;5324816;28;19960;-71
2023/08/18 02:20:20;;;;;;;;;;;;;;;;;;5324551;28;19922;-72
2023/08/18 02:22:51;;;;;;;;;;;;;;;;;;5324589;28;19911;-71
2023/08/18 02:25:22;;;;;;;;;;;;;;;;;;5324952;28;19912;-71
2023/08/18 02:27:54;;;;;;;;;;;;;;;;;;5323781;28;20385;-72
2023/08/18 02:30:25;;;;;;;;;;;;;;;;;;5324716;28;20003;-71
2023/08/18 02:32:56;;;;;;;;;;;;;;;;;;5324640;28;20010;-71
2023/08/18 02:35:27;;;;;;;;;;;;;;;;;;5323918;28;19912;-72
2023/08/18 02:37:58;;;;;;;;;;;;;;;;;;5324351;28;19927;-72
2023/08/18 02:40:29;;;;;;;;;;;;;;;;;;5324538;28;19931;-72
2023/08/18 02:43:00;;;;;;;;;;;;;;;;;;5324138;28;19915;-71
2023/08/18 02:45:31;;;;;;;;;;;;;;;;;;5324243;28;20326;-72
2023/08/18 02:48:02;;;;;;;;;;;;;;;;;;5324818;28;20003;-72
2023/08/18 02:50:34;;;;;;;;;;;;;;;;;;5323405;28;19979;-72
2023/08/18 02:53:05;;;;;;;;;;;;;;;;;;5324761;28;19914;-72
2023/08/18 02:55:36;;;;;;;;;;;;;;;;;;5323256;28;20002;-71
2023/08/18 02:58:07;;;;;;;;;;;;;;;;;;5324544;28;19952;-72
2023/08/18 03:00:38;;;;;;;;;;;;;;;;;;5323939;28;19961;-69
2023/08/18 03:03:09;;;;;;;;;;;;;;;;;;5323187;28;19915;-70
2023/08/18 03:05:40;;;;;;;;;;;;;;;;;;5323849;28;20004;-71
2023/08/18 03:08:12;;;;;;;;;;;;;;;;;;5324475;28;20346;-70
2023/08/18 03:10:43;;;;;;;;;;;;;;;;;;5322737;28;20381;-70
2023/08/18 03:13:14;;;;;;;;;;;;;;;;;;5324453;28;19958;-70
2023/08/18 03:15:45;;;;;;;;;;;;;;;;;;5323633;28;19933;-70
2023/08/18 03:18:16;;;;;;;;;;;;;;;;;;5323857;28;20016;-70
2023/08/18 03:20:48;;;;;;;;;;;;;;;;;;5323992;28;19915;-70
2023/08/18 03:23:19;;;;;;;;;;;;;;;;;;5324004;28;19915;-70
2023/08/18 03:25:50;;;;;;;;;;;;;;;;;;5323637;28;19915;-70
2023/08/18 03:28:21;;;;;;;;;;;;;;;;;;5324291;28;19912;-70
2023/08/18 03:30:52;;;;;;;;;;;;;;;;;;5323098;28;19908;-70
2023/08/18 03:33:23;;;;;;;;;;;;;;;;;;5323933;28;19915;-70
2023/08/18 03:35:54;;;;;;;;;;;;;;;;;;5323718;28;19961;-70
2023/08/18 03:38:26;;;;;;;;;;;;;;;;;;5323181;28;19915;-70
2023/08/18 03:40:57;;;;;;;;;;;;;;;;;;5323914;28;19912;-69
2023/08/18 03:43:28;;;;;;;;;;;;;;;;;;5324312;28;20331;-70
2023/08/18 03:46:00;;;;;;;;;;;;;;;;;;5323280;28;19969;-70
2023/08/18 03:48:31;;;;;;;;;;;;;;;;;;5323643;28;20283;-70
2023/08/18 03:51:02;;;;;;;;;;;;;;;;;;5324037;28;20002;-70
2023/08/18 03:53:33;;;;;;;;;;;;;;;;;;5322677;28;20010;-70
2023/08/18 03:56:04;;;;;;;;;;;;;;;;;;5324346;28;20273;-70
2023/08/18 03:58:35;;;;;;;;;;;;;;;;;;5322916;28;19908;-71
2023/08/18 04:01:08;;;;;;;;;;;;;;;;;;5324058;28;19915;-70
2023/08/18 04:03:39;;;;;;;;;;;;;;;;;;5323525;28;19907;-70
2023/08/18 04:06:12;;;;;;;;;;;;;;;;;;5323458;28;19939;-70
2023/08/18 04:08:44;;;;;;;;;;;;;;;;;;5323600;28;19914;-70
2023/08/18 04:11:15;;;;;;;;;;;;;;;;;;5324212;28;19908;-70
2023/08/18 04:13:48;;;;;;;;;;;;;;;;;;5323509;28;19930;-70
2023/08/18 04:16:19;;;;;;;;;;;;;;;;;;5327717;28;20024;-70
2023/08/18 04:18:50;;;;;;;;;;;;;;;;;;5327245;28;20697;-70
2023/08/18 04:21:21;;;;;;;;;;;;;;;;;;5326913;28;19955;-70
2023/08/18 04:23:52;;;;;;;;;;;;;;;;;;5326918;28;19914;-70
2023/08/18 04:26:23;;;;;;;;;;;;;;;;;;5326902;28;19998;-70
2023/08/18 04:28:54;;;;;;;;;;;;;;;;;;5326210;28;20003;-71
2023/08/18 04:31:26;;;;;;;;;;;;;;;;;;5327015;28;19903;-70
2023/08/18 04:33:58;;;;;;;;;;;;;;;;;;5326199;28;19958;-70
2023/08/18 04:36:29;;;;;;;;;;;;;;;;;;5326497;28;19919;-71
2023/08/18 04:39:00;;;;;;;;;;;;;;;;;;5327021;28;20366;-70
2023/08/18 04:41:31;;;;;;;;;;;;;;;;;;5325614;28;19907;-71
2023/08/18 04:44:03;;;;;;;;;;;;;;;;;;5327200;28;19908;-70
2023/08/18 04:46:34;;;;;;;;;;;;;;;;;;5326245;28;19915;-70
2023/08/18 04:49:05;;;;;;;;;;;;;;;;;;5326089;28;19960;-70
2023/08/18 04:51:36;;;;;;;;;;;;;;;;;;5326146;28;19916;-71
2023/08/18 04:54:07;;;;;;;;;;;;;;;;;;5327056;28;20000;-70
2023/08/18 04:56:38;;;;;;;;;;;;;;;;;;5325551;28;20423;-71
2023/08/18 04:59:09;;;;;;;;;;;;;;;;;;5326852;28;19908;-71
2023/08/18 05:01:41;;;;;;;;;;;;;;;;;;5326059;28;19912;-72
2023/08/18 05:04:12;;;;;;;;;;;;;;;;;;5325830;28;20281;-71
2023/08/18 05:06:43;;;;;;;;;;;;;;;;;;5326064;28;19973;-72
2023/08/18 05:09:14;;;;;;;;;;;;;;;;;;5325890;28;20010;-70
2023/08/18 05:11:45;;;;;;;;;;;;;;;;;;5325889;28;19908;-70
2023/08/18 05:14:16;;;;;;;;;;;;;;;;;;5326524;28;20254;-71
2023/08/18 05:16:47;;;;;;;;;;;;;;;;;;5324908;28;19911;-71
2023/08/18 05:19:18;;;;;;;;;;;;;;;;;;5326277;28;20235;-71
2023/08/18 05:21:50;;;;;;;;;;;;;;;;;;5325779;28;19911;-71
2023/08/18 05:24:21;;;;;;;;;;;;;;;;;;5325095;28;19926;-71
2023/08/18 05:26:52;;;;;;;;;;;;;;;;;;5325356;28;19927;-71
2023/08/18 05:29:23;;;;;;;;;;;;;;;;;;5326249;28;19962;-71
2023/08/18 05:31:54;;;;;;;;;;;;;;;;;;5325176;28;19927;-71
2023/08/18 05:34:25;;;;;;;;;;;;;;;;;;5325740;28;19943;-72
2023/08/18 05:36:56;;;;;;;;;;;;;;;;;;5324960;28;20390;-71
2023/08/18 05:39:27;;;;;;;;;;;;;;;;;;5325057;28;19904;-71
2023/08/18 05:41:58;;;;;;;;;;;;;;;;;;5325725;28;20341;-71
2023/08/18 05:44:29;;;;;;;;;;;;;;;;;;5324409;28;19904;-71
2023/08/18 05:47:00;;;;;;;;;;;;;;;;;;5325723;28;20254;-71
2023/08/18 05:49:32;;;;;;;;;;;;;;;;;;5325097;28;19912;-71
2023/08/18 05:52:03;;;;;;;;;;;;;;;;;;5324882;28;20414;-71
2023/08/18 05:54:34;;;;;;;;;;;;;;;;;;5324969;28;20017;-71
2023/08/18 05:57:05;;;;;;;;;;;;;;;;;;5325507;28;20340;-71
2023/08/18 05:59:36;;;;;;;;;;;;;;;;;;5323923;28;19908;-71
2023/08/18 06:02:07;;;;;;;;;;;;;;;;;;5325355;28;20293;-71
2023/08/18 06:04:38;;;;;;;;;;;;;;;;;;5324584;28;19915;-71
2023/08/18 06:07:11;;;;;;;;;;;;;;;;;;5324471;28;19916;-71
2023/08/18 06:09:42;;;;;;;;;;;;;;;;;;5324691;28;19958;-71
2023/08/18 06:12:13;;;;;;;;;;;;;;;;;;5324333;28;19947;-71
2023/08/18 06:14:44;;;;;;;;;;;;;;;;;;5324654;28;19934;-71
2023/08/18 06:17:15;;;;;;;;;;;;;;;;;;5325216;28;19908;-71
2023/08/18 06:19:46;;;;;;;;;;;;;;;;;;5323696;28;19976;-71
2023/08/18 06:22:17;;;;;;;;;;;;;;;;;;5325217;28;20349;-71
2023/08/18 06:24:48;;;;;;;;;;;;;;;;;;5324432;28;19908;-71
2023/08/18 06:27:19;;;;;;;;;;;;;;;;;;5324115;28;19990;-71
2023/08/18 06:29:52;;;;;;;;;;;;;;;;;;5324635;28;19953;-71
2023/08/18 06:32:23;;;;;;;;;;;;;;;;;;5324666;28;19904;-71
2023/08/18 06:34:55;;;;;;;;;;;;;;;;;;5323688;28;20014;-71
2023/08/18 06:37:26;;;;;;;;;;;;;;;;;;5323424;28;19920;-71
2023/08/18 06:39:57;;;;;;;;;;;;;;;;;;5324558;28;19915;-71
2023/08/18 06:42:28;;;;;;;;;;;;;;;;;;5305364;28;19908;-71
2023/08/18 06:44:59;;;;;;;;;;;;;;;;;;5324245;28;19904;-71
2023/08/18 06:47:30;;;;;;;;;;;;;;;;;;5323239;28;19968;-72
2023/08/18 06:50:05;;;;;;;;;;;;;;;;;;5324702;28;19908;-71
2023/08/18 06:52:36;;;;;;;;;;;;;;;;;;5323855;28;19943;-71
2023/08/18 06:55:13;;;;;;;;;;;;;;;;;;5323879;28;19966;-72
2023/08/18 06:57:45;;;;;;;;;;;;;;;;;;5323467;28;19908;-71
2023/08/18 07:00:18;;;;;;;;;;;;;;;;;;5324676;28;20270;-70
2023/08/18 07:02:49;;;;;;;;;;;;;;;;;;5323102;28;19916;-71
2023/08/18 07:05:23;;;;;;;;;;;;;;;;;;5324579;28;19912;-70
2023/08/18 07:07:54;;;;;;;;;;;;;;;;;;5324207;28;20274;-70
2023/08/18 07:10:26;;;;;;;;;;;;;;;;;;5323027;28;19908;-70
2023/08/18 07:12:57;;;;;;;;;;;;;;;;;;5324057;28;19914;-70
2023/08/18 07:15:28;;;;;;;;;;;;;;;;;;5323288;28;19908;-71
2023/08/18 07:17:59;;;;;;;;;;;;;;;;;;5323932;28;19912;-71
2023/08/18 07:20:31;;;;;;;;;;;;;;;;;;5323822;28;19928;-71
2023/08/18 07:23:04;;;;;;;;;;;;;;;;;;5323685;28;19947;-71
2023/08/18 07:25:35;;;;;;;;;;;;;;;;;;5323323;28;19911;-73
2023/08/18 07:28:06;;;;;;;;;;;;;;;;;;5324221;28;19907;-71
2023/08/18 07:30:37;;;;;;;;;;;;;;;;;;5323028;28;20305;-71
2023/08/18 07:33:08;;;;;;;;;;;;;;;;;;5323999;28;19912;-71
2023/08/18 07:35:39;;;;;;;;;;;;;;;;;;5323528;28;20267;-71
2023/08/18 07:38:10;;;;;;;;;;;;;;;;;;5323113;28;19927;-70
2023/08/18 07:40:41;;;;;;;;;;;;;;;;;;5323695;28;19947;-71
2023/08/18 07:43:13;;;;;;;;;;;;;;;;;;5324261;28;20357;-72
2023/08/18 07:45:44;;;;;;;;;;;;;;;;;;5322555;28;19935;-70
2023/08/18 07:48:15;;;;;;;;;;;;;;;;;;5325552;28;20293;-71
2023/08/18 07:50:47;;;;;;;;;;;;;;;;;;5326333;28;20342;-71
2023/08/18 07:53:18;;;;;;;;;;;;;;;;;;5328337;28;19990;-71
2023/08/18 07:55:49;;;;;;;;;;;;;;;;;;5327351;28;19936;-70
2023/08/18 07:58:20;;;;;;;;;;;;;;;;;;5327181;28;19952;-70
2023/08/18 08:00:52;;;;;;;;;;;;;;;;;;5327012;28;19969;-70
2023/08/18 08:03:23;;;;;;;;;;;;;;;;;;5327499;28;19926;-72
2023/08/18 08:05:54;;;;;;;;;;;;;;;;;;5326506;28;20015;-70
2023/08/18 08:08:25;;;;;;;;;;;;;;;;;;5327148;28;19935;-71
2023/08/18 08:10:56;;;;;;;;;;;;;;;;;;5326639;28;19961;-71
2023/08/18 08:13:27;;;;;;;;;;;;;;;;;;5325854;28;19930;-71
2023/08/18 08:15:58;;;;;;;;;;;;;;;;;;5326733;28;19951;-70
2023/08/18 08:18:30;;;;;;;;;;;;;;;;;;5326747;28;19931;-70
2023/08/18 08:21:01;;;;;;;;;;;;;;;;;;5326260;28;19912;-70
2023/08/18 08:23:32;;;;;;;;;;;;;;;;;;5326353;28;19993;-70
2023/08/18 08:26:03;;;;;;;;;;;;;;;;;;5325980;28;19920;-69
2023/08/18 08:28:35;;;;;;;;;;;;;;;;;;5326500;28;19969;-71
2023/08/18 08:31:06;;;;;;;;;;;;;;;;;;5326744;28;19904;-70
2023/08/18 08:33:38;;;;;;;;;;;;;;;;;;5307680;28;20492;-70
2023/08/18 08:36:09;;;;;;;;;;;;;;;;;;5304826;28;19912;-70
2023/08/18 08:38:40;;;;;;;;;;;;;;;;;;5304786;28;19916;-70
2023/08/18 08:41:11;;;;;;;;;;;;;;;;;;5304519;28;20370;-70
2023/08/18 08:43:42;;;;;;;;;;;;;;;;;;5304550;28;20123;-71
2023/08/18 08:46:13;;;;;;;;;;;;;;;;;;5308055;28;20014;-72
2023/08/18 08:48:44;;;;;;;;;;;;;;;;;;5303904;28;20007;-72
2023/08/18 08:51:15;;;;;;;;;;;;;;;;;;5305006;28;20476;-73
2023/08/18 08:53:47;;;;;;;;;;;;;;;;;;5304905;28;20002;-73
2023/08/18 08:56:18;;;;;;;;;;;;;;;;;;5304353;28;19908;-73
2023/08/18 08:58:49;;;;;;;;;;;;;;;;;;5304385;28;19913;-73
2023/08/18 09:01:22;;;;;;;;;;;;;;;;;;5303709;28;19908;-73
2023/08/18 09:03:53;;;;;;;;;;;;;;;;;;5304465;28;19915;-73
2023/08/18 09:06:25;;;;;;;;;;;;;;;;;;5304501;28;19920;-73
2023/08/18 09:08:56;;;;;;;;;;;;;;;;;;5303925;28;19912;-73
2023/08/18 09:11:27;;;;;;;;;;;;;;;;;;5304596;28;19916;-74
2023/08/18 09:13:58;;;;;;;;;;;;;;;;;;5304467;28;19954;-74
2023/08/18 09:16:29;;;;;;;;;;;;;;;;;;5303319;28;20024;-73
2023/08/18 09:19:00;;;;;;;;;;;;;;;;;;5304730;28;20424;-73
2023/08/18 09:21:31;;;;;;;;;;;;;;;;;;5303913;28;19908;-74
2023/08/18 09:24:02;;;;;;;;;;;;;;;;;;5303945;28;19912;-73
2023/08/18 09:26:33;;;;;;;;;;;;;;;;;;5303780;28;19920;-72
2023/08/18 09:29:04;;;;;;;;;;;;;;;;;;5303864;28;19908;-73
2023/08/18 09:31:36;;;;;;;;;;;;;;;;;;5304034;28;19908;-72
2023/08/18 09:34:07;;;;;;;;;;;;;;;;;;5304340;28;19908;-73
2023/08/18 09:36:38;;;;;;;;;;;;;;;;;;5302943;28;20436;-73
2023/08/18 09:39:09;;;;;;;;;;;;;;;;;;5304006;28;19908;-72
2023/08/18 09:41:40;;;;;;;;;;;;;;;;;;5303533;28;19915;-72
2023/08/18 09:44:11;;;;;;;;;;;;;;;;;;5303547;28;20246;-73
2023/08/18 09:46:42;;;;;;;;;;;;;;;;;;5303318;28;20030;-73
2023/08/18 09:49:13;;;;;;;;;;;;;;;;;;5304012;28;20026;-73
2023/08/18 09:51:44;;;;;;;;;;;;;;;;;;5302830;28;19995;-73
2023/08/18 09:54:16;;;;;;;;;;;;;;;;;;5304600;28;19927;-72
2023/08/18 09:56:47;;;;;;;;;;;;;;;;;;5303364;28;19915;-73
2023/08/18 09:59:18;;;;;;;;;;;;;;;;;;5303239;28;20374;-73
2023/08/18 10:01:52;;;;;;;;;;;;;;;;;;5303256;28;19958;-73
2023/08/18 10:04:23;;;;;;;;;;;;;;;;;;5303070;28;19908;-73
2023/08/18 10:06:54;;;;;;;;;;;;;;;;;;5303234;28;19927;-73
2023/08/18 10:09:27;;;;;;;;;;;;;;;;;;5303329;28;20290;-73
2023/08/18 10:11:58;;;;;;;;;;;;;;;;;;5302402;28;19915;-73
2023/08/18 10:14:29;;;;;;;;;;;;;;;;;;5302943;28;19913;-72
2023/08/18 10:17:01;;;;;;;;;;;;;;;;;;5303342;28;20063;-73
2023/08/18 10:19:32;;;;;;;;;;;;;;;;;;5302371;28;20270;-73
2023/08/18 10:22:03;;;;;;;;;;;;;;;;;;5303368;28;20053;-73
2023/08/18 10:24:35;;;;;;;;;;;;;;;;;;5302725;28;19908;-73
2023/08/18 10:27:10;;;;;;;;;;;;;;;;;;5302248;28;19917;-73
2023/08/18 10:29:41;;;;;;;;;;;;;;;;;;5302625;28;19908;-72
2023/08/18 10:32:12;;;;;;;;;;;;;;;;;;5303239;28;19908;-73
2023/08/18 10:34:43;;;;;;;;;;;;;;;;;;5301771;28;19921;-73
2023/08/18 10:37:14;;;;;;;;;;;;;;;;;;5303097;28;19992;-72
2023/08/18 10:39:45;;;;;;;;;;;;;;;;;;5301999;28;19909;-72
2023/08/18 10:42:17;;;;;;;;;;;;;;;;;;5303309;28;19927;-73
2023/08/18 10:44:48;;;;;;;;;;;;;;;;;;5302544;28;19912;-73
2023/08/18 10:47:19;;;;;;;;;;;;;;;;;;5302262;28;19916;-73
2023/08/18 10:49:50;;;;;;;;;;;;;;;;;;5302480;28;20323;-73
2023/08/18 10:52:21;;;;;;;;;;;;;;;;;;5303239;28;19915;-73
2023/08/18 10:54:52;;;;;;;;;;;;;;;;;;5301469;28;19934;-73
2023/08/18 10:57:23;;;;;;;;;;;;;;;;;;5302714;28;19912;-73
2023/08/18 10:59:54;;;;;;;;;;;;;;;;;;5302463;28;19908;-72
2023/08/18 11:02:25;;;;;;;;;;;;;;;;;;5301789;28;19912;-72
2023/08/18 11:04:57;;;;;;;;;;;;;;;;;;5302610;28;19981;-72
2023/08/18 11:07:28;;;;;;;;;;;;;;;;;;5302495;28;20270;-71
2023/08/18 11:09:59;;;;;;;;;;;;;;;;;;5301545;28;19933;-72
2023/08/18 11:12:30;;;;;;;;;;;;;;;;;;5302128;28;19954;-72
2023/08/18 11:15:02;;;;;;;;;;;;;;;;;;5302021;28;19908;-72
2023/08/18 11:17:33;;;;;;;;;;;;;;;;;;5302293;28;20316;-72
2023/08/18 11:20:13;;;;;;;;;;;;;;;;;;5302808;28;19908;-69
2023/08/18 11:22:44;;;;;;;;;;;;;;;;;;5302240;28;19915;-69
2023/08/18 11:25:16;;;;;;;;;;;;;;;;;;5306987;28;19912;-69
2023/08/18 11:27:47;;;;;;;;;;;;;;;;;;5306080;28;20427;-70
2023/08/18 11:30:19;;;;;;;;;;;;;;;;;;5306268;28;20282;-69
2023/08/18 11:32:52;;;;;;;;;;;;;;;;;;5306326;28;19963;-69
2023/08/18 11:35:25;;;;;;;;;;;;;;;;;;5306730;28;19912;-69
2023/08/18 11:37:56;;;;;;;;;;;;;;;;;;5305092;28;19920;-69
2023/08/18 11:40:28;;;;;;;;;;;;;;;;;;5306714;28;19961;-69
2023/08/18 11:42:59;;;;;;;;;;;;;;;;;;5305613;28;19961;-69
2023/08/18 11:45:30;;;;;;;;;;;;;;;;;;5306144;28;20073;-70
2023/08/18 11:48:01;;;;;;;;;;;;;;;;;;5306817;28;19970;-72
2023/08/18 11:50:32;;;;;;;;;;;;;;;;;;5306126;28;20009;-71
2023/08/18 11:53:03;;;;;;;;;;;;;;;;;;5319825;28;19952;-70
2023/08/18 11:55:34;;;;;;;;;;;;;;;;;;5326806;28;19912;-71
2023/08/18 11:58:06;;;;;;;;;;;;;;;;;;5326619;28;20128;-71
2023/08/18 12:00:37;;;;;;;;;;;;;;;;;;5326857;28;19907;-71
2023/08/18 12:03:08;;;;;;;;;;;;;;;;;;5327424;28;19929;-71
2023/08/18 12:05:39;;;;;;;;;;;;;;;;;;5326110;28;19994;-72
2023/08/18 12:08:11;;;;;;;;;;;;;;;;;;5327367;28;19918;-71
2023/08/18 12:10:44;;;;;;;;;;;;;;;;;;5326651;28;20323;-72
2023/08/18 12:13:15;;;;;;;;;;;;;;;;;;5326051;28;19912;-71
2023/08/18 12:15:47;;;;;;;;;;;;;;;;;;5326985;28;19908;-71
2023/08/18 12:18:18;;;;;;;;;;;;;;;;;;5326396;28;19907;-71
2023/08/18 12:20:49;;;;;;;;;;;;;;;;;;5326639;28;20670;-71
2023/08/18 12:23:20;;;;;;;;;;;;;;;;;;5326637;28;20358;-72
2023/08/18 12:25:51;;;;;;;;;;;;;;;;;;5325456;28;19953;-71
2023/08/18 12:28:23;;;;;;;;;;;;;;;;;;5327199;28;20331;-71
2023/08/18 12:30:54;;;;;;;;;;;;;;;;;;5326577;28;19908;-71
2023/08/18 12:33:25;;;;;;;;;;;;;;;;;;5325290;28;19908;-72
2023/08/18 12:35:56;;;;;;;;;;;;;;;;;;5324689;28;19934;-72
2023/08/18 12:38:27;;;;;;;;;;;;;;;;;;5325662;28;20398;-72
2023/08/18 12:41:02;;;;;;;;;;;;;;;;;;5325248;28;19908;-72
2023/08/18 12:43:33;;;;;;;;;;;;;;;;;;5325494;28;19908;-72
2023/08/18 12:46:04;;;;;;;;;;;;;;;;;;5325300;28;19912;-72
2023/08/18 12:48:35;;;;;;;;;;;;;;;;;;5326028;28;19933;-71
2023/08/18 12:51:07;;;;;;;;;;;;;;;;;;5326665;28;19908;-72
2023/08/18 12:53:38;;;;;;;;;;;;;;;;;;5323845;28;19915;-70
2023/08/18 12:56:09;;;;;;;;;;;;;;;;;;5324502;28;20281;-70
2023/08/18 12:58:40;;;;;;;;;;;;;;;;;;5324799;28;19937;-71
2023/08/18 13:01:12;;;;;;;;;;;;;;;;;;5325694;28;20324;-71
2023/08/18 13:03:43;;;;;;;;;;;;;;;;;;5325875;28;20293;-71
2023/08/18 13:06:15;;;;;;;;;;;;;;;;;;5326133;28;19920;-71
2023/08/18 13:08:46;;;;;;;;;;;;;;;;;;5324973;28;19908;-71
2023/08/18 13:11:17;;;;;;;;;;;;;;;;;;5326066;28;19908;-71
2023/08/18 13:13:48;;;;;;;;;;;;;;;;;;5325468;28;19930;-70
2023/08/18 13:16:19;;;;;;;;;;;;;;;;;;5325006;28;19915;-70
2023/08/18 13:18:51;;;;;;;;;;;;;;;;;;5325461;28;19911;-71
2023/08/18 13:21:22;;;;;;;;;;;;;;;;;;5325013;28;19915;-70
2023/08/18 13:23:54;;;;;;;;;;;;;;;;;;5325326;28;20370;-70
2023/08/18 13:26:25;;;;;;;;;;;;;;;;;;5325501;28;19915;-70
2023/08/18 13:28:56;;;;;;;;;;;;;;;;;;5306325;28;19933;-70
2023/08/18 13:31:27;;;;;;;;;;;;;;;;;;5325539;28;19908;-71
2023/08/18 13:33:58;;;;;;;;;;;;;;;;;;5325530;28;19914;-70
2023/08/18 13:36:30;;;;;;;;;;;;;;;;;;5323923;28;19919;-71
2023/08/18 13:39:01;;;;;;;;;;;;;;;;;;5325695;28;20381;-71
2023/08/18 13:41:32;;;;;;;;;;;;;;;;;;5325181;28;20274;-71
2023/08/18 13:44:03;;;;;;;;;;;;;;;;;;5324981;28;19937;-71
2023/08/18 13:46:34;;;;;;;;;;;;;;;;;;5324451;28;19961;-71
2023/08/18 13:49:05;;;;;;;;;;;;;;;;;;5325348;28;19915;-71
2023/08/18 13:51:37;;;;;;;;;;;;;;;;;;5324124;28;20388;-71
2023/08/18 13:54:12;;;;;;;;;;;;;;;;;;5325726;28;19908;-71
2023/08/18 13:56:44;;;;;;;;;;;;;;;;;;5324017;28;20002;-71
2023/08/18 13:59:16;;;;;;;;;;;;;;;;;;5325057;28;19912;-70
2023/08/18 14:01:47;;;;;;;;;;;;;;;;;;5324730;28;20277;-70
2023/08/18 14:04:18;;;;;;;;;;;;;;;;;;5324588;28;19908;-70
2023/08/18 14:06:49;;;;;;;;;;;;;;;;;;5324537;28;20014;-70
2023/08/18 14:09:20;;;;;;;;;;;;;;;;;;5325221;28;19961;-71
2023/08/18 14:11:51;;;;;;;;;;;;;;;;;;5323600;28;19915;-71
2023/08/18 14:14:22;;;;;;;;;;;;;;;;;;5325289;28;20279;-71
2023/08/18 14:16:54;;;;;;;;;;;;;;;;;;5324336;28;19954;-71
2023/08/18 14:19:27;;;;;;;;;;;;;;;;;;5323960;28;20380;-70
2023/08/18 14:21:58;;;;;;;;;;;;;;;;;;5324765;28;19908;-70
2023/08/18 14:24:29;;;;;;;;;;;;;;;;;;5323782;28;19907;-71
2023/08/18 14:27:00;;;;;;;;;;;;;;;;;;5325039;28;19970;-70
2023/08/18 14:29:31;;;;;;;;;;;;;;;;;;5324429;28;19915;-71
2023/08/18 14:32:02;;;;;;;;;;;;;;;;;;5324135;28;19919;-71
2023/08/18 14:34:34;;;;;;;;;;;;;;;;;;5324334;28;20320;-71
2023/08/18 14:37:05;;;;;;;;;;;;;;;;;;5324658;28;20393;-71
2023/08/18 14:39:37;;;;;;;;;;;;;;;;;;5323612;28;20346;-71
2023/08/18 14:42:09;;;;;;;;;;;;;;;;;;5324684;28;19908;-71
2023/08/18 14:44:40;;;;;;;;;;;;;;;;;;5323939;28;19968;-71
2023/08/18 14:47:11;;;;;;;;;;;;;;;;;;5322241;28;19916;-71
2023/08/18 14:49:42;;;;;;;;;;;;;;;;;;5323968;28;19907;-70
2023/08/18 14:52:13;;;;;;;;;;;;;;;;;;5324275;28;20006;-70
2023/08/18 14:54:44;;;;;;;;;;;;;;;;;;5322767;28;19907;-71
2023/08/18 14:57:15;;;;;;;;;;;;;;;;;;5322155;28;20304;-71
2023/08/18 14:59:47;;;;;;;;;;;;;;;;;;5322789;28;19915;-71
2023/08/18 15:02:18;;;;;;;;;;;;;;;;;;5324089;28;19984;-71
2023/08/18 15:04:49;;;;;;;;;;;;;;;;;;5305231;28;19908;-71
2023/08/18 15:07:20;;;;;;;;;;;;;;;;;;5323198;28;19916;-71
2023/08/18 15:09:51;;;;;;;;;;;;;;;;;;5323625;28;20309;-71
2023/08/18 15:12:22;;;;;;;;;;;;;;;;;;5324221;28;19912;-71
2023/08/18 15:14:53;;;;;;;;;;;;;;;;;;5322588;28;19908;-70
2023/08/18 15:17:25;;;;;;;;;;;;;;;;;;5323854;28;20273;-71
2023/08/18 15:19:56;;;;;;;;;;;;;;;;;;5323775;28;19907;-71
2023/08/18 15:22:27;;;;;;;;;;;;;;;;;;5323086;28;20289;-71
2023/08/18 15:24:58;;;;;;;;;;;;;;;;;;5323807;28;19937;-71
2023/08/18 15:27:29;;;;;;;;;;;;;;;;;;5305266;28;19976;-71
2023/08/18 15:30:02;;;;;;;;;;;;;;;;;;5323201;28;19908;-71
2023/08/18 15:32:33;;;;;;;;;;;;;;;;;;5323320;28;19912;-71
2023/08/18 15:35:04;;;;;;;;;;;;;;;;;;5322938;28;19969;-71
2023/08/18 15:37:35;;;;;;;;;;;;;;;;;;5322871;28;19920;-71
2023/08/18 15:40:06;;;;;;;;;;;;;;;;;;5323959;28;20029;-71
2023/08/18 15:42:38;;;;;;;;;;;;;;;;;;5322302;28;20003;-71
2023/08/18 15:45:09;;;;;;;;;;;;;;;;;;5323695;28;20354;-71
2023/08/18 15:47:40;;;;;;;;;;;;;;;;;;5323036;28;19916;-70
2023/08/18 15:50:13;;;;;;;;;;;;;;;;;;5323126;28;20074;-70
2023/08/18 15:52:44;;;;;;;;;;;;;;;;;;5323193;28;19915;-70
2023/08/18 15:55:15;;;;;;;;;;;;;;;;;;5323882;28;19920;-70
2023/08/18 15:57:46;;;;;;;;;;;;;;;;;;5322216;28;19911;-70
2023/08/18 16:00:17;;;;;;;;;;;;;;;;;;5323438;28;19908;-70
2023/08/18 16:02:49;;;;;;;;;;;;;;;;;;5322946;28;20295;-70
2023/08/18 16:05:20;;;;;;;;;;;;;;;;;;5322535;28;19977;-70
2023/08/18 16:07:51;;;;;;;;;;;;;;;;;;5322882;28;19916;-70
2023/08/18 16:10:22;;;;;;;;;;;;;;;;;;5326010;28;20392;-71
2023/08/18 16:12:53;;;;;;;;;;;;;;;;;;5326673;28;19908;-70
2023/08/18 16:15:25;;;;;;;;;;;;;;;;;;5327259;28;19908;-70
2023/08/18 16:17:58;;;;;;;;;;;;;;;;;;5326219;28;20002;-70
2023/08/18 16:20:29;;;;;;;;;;;;;;;;;;5326271;28;19908;-70
2023/08/18 16:23:00;;;;;;;;;;;;;;;;;;5326897;28;19908;-70
2023/08/18 16:25:31;;;;;;;;;;;;;;;;;;5325749;28;19915;-70
2023/08/18 16:28:02;;;;;;;;;;;;;;;;;;5326769;28;19915;-70
2023/08/18 16:30:33;;;;;;;;;;;;;;;;;;5326504;28;20016;-72
2023/08/18 16:33:05;;;;;;;;;;;;;;;;;;5326209;28;19907;-72
2023/08/18 16:35:36;;;;;;;;;;;;;;;;;;5326298;28;19912;-70
2023/08/18 16:38:07;;;;;;;;;;;;;;;;;;5326019;28;19920;-70
2023/08/18 16:40:38;;;;;;;;;;;;;;;;;;5325727;28;19908;-70
2023/08/18 16:43:09;;;;;;;;;;;;;;;;;;5326871;28;20358;-70
2023/08/18 16:45:40;;;;;;;;;;;;;;;;;;5325246;28;19908;-70
2023/08/18 16:48:13;;;;;;;;;;;;;;;;;;5326523;28;20346;-70
2023/08/18 16:50:44;;;;;;;;;;;;;;;;;;5326003;28;20293;-71
2023/08/18 16:53:15;;;;;;;;;;;;;;;;;;5325792;28;19918;-70
2023/08/18 16:55:46;;;;;;;;;;;;;;;;;;5324754;28;19930;-70
2023/08/18 16:58:17;;;;;;;;;;;;;;;;;;5326450;28;19907;-70
2023/08/18 17:00:48;;;;;;;;;;;;;;;;;;5324742;28;19970;-70
2023/08/18 17:03:19;;;;;;;;;;;;;;;;;;5326389;28;20405;-71
2023/08/18 17:05:50;;;;;;;;;;;;;;;;;;5325302;28;19912;-70
2023/08/18 17:08:22;;;;;;;;;;;;;;;;;;5325378;28;19911;-71
2023/08/18 17:10:53;;;;;;;;;;;;;;;;;;5325466;28;19972;-71
2023/08/18 17:13:24;;;;;;;;;;;;;;;;;;5325218;28;19914;-70